Time;durP1;ratioP1;P1;durP2;ratioP2;P2;SDS_P1;SDS_P2;PMS_P1;PMS_P2;Temp;Humidity;BMP_temperature;BMP_pressure;BME280_temperature;BME280_humidity;BME280_pressure;Samples;Min_cycle;Max_cycle;Signal;HPM_P1;HPM_P2
2023/07/31 00:00:00;;;;;;;3.45;2.00;;;;;;;13.73;100.00;96020.97;1022850;28;20035;-73
2023/07/31 00:00:31;;;;;;;2.83;2.00;;;;;;;13.71;100.00;96012.53;1029164;28;20018;-75
2023/07/31 00:01:01;;;;;;;2.75;2.10;;;;;;;13.59;100.00;95993.66;1022607;29;20068;-73
2023/07/31 00:01:32;;;;;;;6.63;2.17;;;;;;;13.64;100.00;96001.53;1015019;29;20028;-74
2023/07/31 00:02:02;;;;;;;5.50;2.10;;;;;;;13.64;100.00;96004.16;1014872;29;20142;-77
2023/07/31 00:02:33;;;;;;;3.55;1.60;;;;;;;13.68;100.00;96013.09;1014903;29;20039;-75
2023/07/31 00:03:03;;;;;;;5.10;1.92;;;;;;;13.63;100.00;96005.22;1011007;29;20040;-75
2023/07/31 00:03:33;;;;;;;4.72;2.10;;;;;;;13.68;100.00;96015.72;1015105;29;20032;-75
2023/07/31 00:04:04;;;;;;;5.60;1.92;;;;;;;13.66;100.00;96013.38;1018849;29;20024;-75
2023/07/31 00:04:34;;;;;;;5.30;2.10;;;;;;;13.67;100.00;96016.78;1018995;29;20091;-75
2023/07/31 00:05:05;;;;;;;4.70;2.13;;;;;;;13.67;100.00;96017.59;1018760;29;20099;-76
2023/07/31 00:05:36;;;;;;;3.75;1.85;;;;;;;13.67;100.00;96014.16;1025712;28;20458;-74
2023/07/31 00:06:06;;;;;;;5.28;2.00;;;;;;;13.63;100.00;96008.66;1027006;28;20023;-75
2023/07/31 00:06:36;;;;;;;3.92;2.28;;;;;;;13.67;100.00;96016.78;1027069;28;20026;-76
2023/07/31 00:07:07;;;;;;;3.42;1.88;;;;;;;13.59;100.00;96006.84;1030502;28;20037;-75
2023/07/31 00:07:37;;;;;;;6.68;2.13;;;;;;;13.65;100.00;96013.66;1022925;28;20043;-74
2023/07/31 00:08:09;;;;;;;5.95;1.75;;;;;;;13.64;100.00;96015.50;1018955;29;20430;-74
2023/07/31 00:08:39;;;;;;;4.97;2.30;;;;;;;13.62;100.00;96014.22;1022619;29;20022;-76
2023/07/31 00:09:10;;;;;;;3.15;1.70;;;;;;;13.61;100.00;96018.69;1022296;29;20035;-74
2023/07/31 00:09:40;;;;;;;3.10;1.67;;;;;;;13.54;100.00;96006.88;1018890;29;20027;-74
2023/07/31 00:10:11;;;;;;;3.70;1.95;;;;;;;13.54;100.00;96001.59;1022893;28;20091;-76
2023/07/31 00:10:41;;;;;;;6.20;2.10;;;;;;;13.62;100.00;96019.50;1022225;28;20031;-74
2023/07/31 00:11:12;;;;;;;6.22;2.05;;;;;;;13.63;100.00;96021.84;1019606;29;20034;-75
2023/07/31 00:11:42;;;;;;;2.40;1.77;;;;;;;13.57;100.00;96001.06;1022801;28;20406;-73
2023/07/31 00:12:13;;;;;;;6.15;2.03;;;;;;;13.64;100.00;96014.72;1022939;28;20039;-74
2023/07/31 00:12:44;;;;;;;2.67;1.88;;;;;;;13.59;100.00;96004.22;1026644;28;20760;-75
2023/07/31 00:13:15;;;;;;;6.50;2.08;;;;;;;13.66;100.00;96009.97;1018827;29;20041;-74
2023/07/31 00:13:45;;;;;;;5.78;1.98;;;;;;;13.67;100.00;96011.53;1019083;29;20050;-74
2023/07/31 00:14:16;;;;;;;6.82;1.88;;;;;;;13.66;100.00;96012.59;1011448;29;20069;-74
2023/07/31 00:14:46;;;;;;;4.60;1.85;;;;;;;13.63;100.00;96011.28;1015069;29;20044;-76
2023/07/31 00:15:17;;;;;;;4.43;2.00;;;;;;;13.62;100.00;96008.94;1022811;29;20126;-74
2023/07/31 00:15:47;;;;;;;5.43;1.80;;;;;;;13.48;100.00;95985.06;1018756;28;20045;-74
2023/07/31 00:16:18;;;;;;;6.25;2.38;;;;;;;13.58;100.00;95997.34;1022626;28;20493;-74
2023/07/31 00:16:48;;;;;;;5.68;1.90;;;;;;;13.61;100.00;96008.13;1018851;29;20139;-74
2023/07/31 00:17:19;;;;;;;4.10;2.10;;;;;;;13.61;100.00;96002.84;1018772;29;20106;-74
2023/07/31 00:17:49;;;;;;;5.18;2.38;;;;;;;13.57;100.00;95998.41;1018595;29;20040;-74
2023/07/31 00:18:20;;;;;;;6.47;1.98;;;;;;;13.57;100.00;95991.28;1014991;29;20024;-75
2023/07/31 00:18:50;;;;;;;3.53;2.05;;;;;;;13.56;100.00;96000.28;1007248;29;20033;-75
2023/07/31 00:19:21;;;;;;;3.60;1.90;;;;;;;13.64;100.00;96001.53;1011324;29;20028;-75
2023/07/31 00:19:51;;;;;;;7.53;2.10;;;;;;;13.62;100.00;95993.13;1018971;29;20047;-74
2023/07/31 00:20:21;;;;;;;4.03;1.73;;;;;;;13.64;100.00;96006.81;1018532;28;20059;-75
2023/07/31 00:20:52;;;;;;;5.35;2.45;;;;;;;13.62;100.00;96007.09;1026894;28;20136;-75
2023/07/31 00:21:22;;;;;;;2.90;1.80;;;;;;;13.61;100.00;96009.97;1026755;28;20031;-73
2023/07/31 00:21:53;;;;;;;4.25;1.88;;;;;;;13.62;100.00;95999.19;1022949;28;20046;-76
2023/07/31 00:22:23;;;;;;;2.85;1.90;;;;;;;13.63;100.00;96005.22;1026826;28;20416;-74
2023/07/31 00:22:54;;;;;;;4.13;1.95;;;;;;;13.62;100.00;96006.31;1022775;28;20027;-74
2023/07/31 00:23:24;;;;;;;5.47;1.95;;;;;;;13.54;100.00;95996.31;1022789;28;20074;-75
2023/07/31 00:23:55;;;;;;;3.58;2.00;;;;;;;13.60;100.00;96005.78;1026793;28;20142;-75
2023/07/31 00:24:26;;;;;;;2.00;1.77;;;;;;;13.52;100.00;95993.97;1022699;28;20531;-75
2023/07/31 00:24:57;;;;;;;9.40;2.15;;;;;;;13.57;100.00;96001.06;1018909;29;20035;-76
2023/07/31 00:25:27;;;;;;;3.22;1.50;;;;;;;13.59;100.00;96009.50;1018781;29;20731;-76
2023/07/31 00:25:58;;;;;;;5.70;1.77;;;;;;;13.55;100.00;96001.34;1022892;29;20094;-73
2023/07/31 00:26:28;;;;;;;3.47;2.00;;;;;;;13.54;100.00;96006.88;1025849;28;20026;-74
2023/07/31 00:26:58;;;;;;;5.10;1.80;;;;;;;13.55;100.00;96003.19;1023239;29;20038;-76
2023/07/31 00:27:29;;;;;;;2.78;1.70;;;;;;;13.54;100.00;96004.22;1023334;29;20031;-76
2023/07/31 00:27:59;;;;;;;2.35;1.60;;;;;;;13.50;100.00;95995.31;1023146;28;20145;-74
2023/07/31 00:28:30;;;;;;;5.07;1.92;;;;;;;13.55;100.00;96003.97;1015416;29;20066;-76
2023/07/31 00:29:00;;;;;;;6.07;2.20;;;;;;;13.51;100.00;95997.66;1019230;29;20043;-74
2023/07/31 00:29:31;;;;;;;2.60;1.60;;;;;;;13.53;100.00;96006.09;1015079;29;20040;-75
2023/07/31 00:30:01;;;;;;;5.22;1.77;;;;;;;13.47;100.00;95993.22;1015518;28;20905;-75
2023/07/31 00:30:32;;;;;;;3.00;1.85;;;;;;;13.44;100.00;95989.28;1022309;29;20221;-75
2023/07/31 00:31:03;;;;;;;6.38;1.83;;;;;;;13.53;100.00;96002.66;1018956;28;20027;-76
2023/07/31 00:31:33;;;;;;;3.72;1.90;;;;;;;13.52;100.00;95999.25;1022511;29;20030;-76
2023/07/31 00:32:04;;;;;;;2.72;1.83;;;;;;;13.52;100.00;96004.53;1015091;29;20024;-74
2023/07/31 00:32:35;;;;;;;4.70;1.90;;;;;;;13.48;100.00;95990.31;1018556;29;20071;-73
2023/07/31 00:33:05;;;;;;;3.47;2.00;;;;;;;13.55;100.00;96003.97;1018669;29;20511;-73
2023/07/31 00:33:36;;;;;;;2.90;1.90;;;;;;;13.48;100.00;95984.22;1015051;29;20035;-74
2023/07/31 00:34:07;;;;;;;5.20;1.98;;;;;;;13.57;100.00;96001.84;1014878;29;20115;-74
2023/07/31 00:34:37;;;;;;;3.58;1.75;;;;;;;13.52;100.00;95983.44;1014627;29;20671;-77
2023/07/31 00:35:08;;;;;;;3.88;2.20;;;;;;;13.61;100.00;95996.78;1011134;29;20589;-75
2023/07/31 00:35:38;;;;;;;3.80;2.17;;;;;;;13.62;100.00;95993.13;1015399;28;20039;-76
2023/07/31 00:36:08;;;;;;;6.82;2.30;;;;;;;13.62;100.00;95993.91;1026845;28;20034;-76
2023/07/31 00:36:39;;;;;;;3.17;1.60;;;;;;;13.61;100.00;95994.16;1030695;28;20102;-75
2023/07/31 00:37:09;;;;;;;3.33;2.03;;;;;;;13.59;100.00;95998.94;1026707;28;20500;-74
2023/07/31 00:37:40;;;;;;;4.03;2.00;;;;;;;13.54;100.00;95986.56;1022775;29;20027;-75
2023/07/31 00:38:10;;;;;;;2.53;1.80;;;;;;;13.57;100.00;95996.56;1018823;29;20036;-75
2023/07/31 00:38:41;;;;;;;4.10;1.92;;;;;;;13.60;100.00;95995.22;1018616;28;20118;-74
2023/07/31 00:39:11;;;;;;;5.55;1.90;;;;;;;13.57;100.00;95996.56;1022965;28;20066;-78
2023/07/31 00:39:42;;;;;;;4.57;2.00;;;;;;;13.50;100.00;95982.91;1018763;29;20027;-77
2023/07/31 00:40:13;;;;;;;3.92;2.17;;;;;;;13.56;100.00;95988.94;1014826;29;20028;-74
2023/07/31 00:40:44;;;;;;;4.43;1.85;;;;;;;13.55;100.00;95992.66;1014301;29;20040;-74
2023/07/31 00:41:14;;;;;;;3.97;2.03;;;;;;;13.52;100.00;95993.19;1019092;29;20028;-76
2023/07/31 00:41:45;;;;;;;5.03;2.00;;;;;;;13.48;100.00;95982.41;1018805;29;20035;-74
2023/07/31 00:42:15;;;;;;;3.70;1.77;;;;;;;13.55;100.00;95992.66;1022697;28;20042;-75
2023/07/31 00:42:46;;;;;;;6.70;2.25;;;;;;;13.53;100.00;95990.28;1018478;29;20497;-74
2023/07/31 00:43:16;;;;;;;6.50;2.03;;;;;;;13.52;100.00;95993.97;1016098;28;20492;-73
2023/07/31 00:43:47;;;;;;;4.32;2.22;;;;;;;13.33;100.00;95966.69;1026626;28;20062;-74
2023/07/31 00:44:17;;;;;;;5.68;1.90;;;;;;;13.49;100.00;95993.75;1018948;29;20423;-75
2023/07/31 00:44:48;;;;;;;3.65;1.95;;;;;;;13.51;100.00;95991.59;1018482;29;20055;-75
2023/07/31 00:45:18;;;;;;;3.22;1.77;;;;;;;13.49;100.00;95988.47;1022641;29;20027;-74
2023/07/31 00:45:49;;;;;;;3.45;1.50;;;;;;;13.50;100.00;95984.75;1022703;29;20031;-74
2023/07/31 00:46:19;;;;;;;3.00;1.77;;;;;;;13.41;100.00;95974.00;1021888;29;20352;-73
2023/07/31 00:46:50;;;;;;;4.05;2.28;;;;;;;13.45;100.00;95988.22;1024154;28;20042;-77
2023/07/31 00:47:20;;;;;;;4.82;1.95;;;;;;;13.46;100.00;95994.28;1022503;29;20027;-74
2023/07/31 00:47:51;;;;;;;3.35;1.70;;;;;;;13.44;100.00;95984.78;1022730;29;20030;-75
2023/07/31 00:48:21;;;;;;;2.35;1.73;;;;;;;13.46;100.00;95989.78;1017421;29;20031;-74
2023/07/31 00:48:52;;;;;;;3.10;1.80;;;;;;;13.41;100.00;95981.91;1014826;29;20571;-74
2023/07/31 00:49:22;;;;;;;5.90;2.55;;;;;;;13.40;100.00;95975.84;1018595;29;20102;-73
2023/07/31 00:49:53;;;;;;;2.90;1.90;;;;;;;13.47;100.00;95994.00;1014745;29;20050;-73
2023/07/31 00:50:24;;;;;;;3.35;1.75;;;;;;;13.44;100.00;95984.78;1017789;29;20881;-74
2023/07/31 00:50:54;;;;;;;3.65;1.90;;;;;;;13.47;100.00;95990.59;1022611;29;20378;-76
2023/07/31 00:51:25;;;;;;;6.15;1.90;;;;;;;13.49;100.00;95993.75;1022501;29;20079;-74
2023/07/31 00:51:57;;;;;;;2.67;1.55;;;;;;;13.48;100.00;95989.50;1022486;29;20023;-76
2023/07/31 00:52:27;;;;;;;3.45;1.90;;;;;;;13.47;100.00;95995.84;1022657;29;20023;-75
2023/07/31 00:52:58;;;;;;;5.25;1.70;;;;;;;13.48;100.00;95997.41;1018952;29;20402;-75
2023/07/31 00:53:28;;;;;;;6.03;1.90;;;;;;;13.48;100.00;95986.88;1022367;29;20500;-74
2023/07/31 00:53:59;;;;;;;2.90;1.80;;;;;;;13.47;100.00;95990.59;1014925;29;20036;-73
2023/07/31 00:54:29;;;;;;;3.15;1.80;;;;;;;13.47;100.00;95993.22;1011004;29;20024;-74
2023/07/31 00:55:00;;;;;;;3.50;1.95;;;;;;;13.48;100.00;95986.88;1018684;29;20027;-76
2023/07/31 00:55:30;;;;;;;5.93;2.10;;;;;;;13.48;100.00;95986.88;1018558;29;20086;-74
2023/07/31 00:56:01;;;;;;;5.53;1.98;;;;;;;13.50;100.00;95987.41;1018663;29;20628;-74
2023/07/31 00:56:31;;;;;;;4.15;1.83;;;;;;;13.45;100.00;95977.69;1022659;29;20023;-72
2023/07/31 00:57:02;;;;;;;5.00;2.00;;;;;;;13.46;100.00;95983.75;1016037;29;20447;-73
2023/07/31 00:57:32;;;;;;;3.30;1.90;;;;;;;13.50;100.00;95984.75;1009200;29;20136;-75
2023/07/31 00:58:03;;;;;;;2.53;1.95;;;;;;;13.45;100.00;95975.06;1022233;28;20030;-76
2023/07/31 00:58:33;;;;;;;3.72;1.80;;;;;;;13.47;100.00;95974.75;1026087;28;20030;-75
2023/07/31 00:59:04;;;;;;;4.45;1.77;;;;;;;13.54;100.00;95985.78;1018594;28;20100;-75
2023/07/31 00:59:34;;;;;;;2.05;1.40;;;;;;;13.44;100.00;95971.59;1018541;29;20026;-75
2023/07/31 01:00:05;;;;;;;5.95;1.80;;;;;;;13.51;100.00;95978.41;1014383;29;20036;-75
2023/07/31 01:00:36;;;;;;;5.18;1.70;;;;;;;13.58;100.00;95986.78;1010402;29;20021;-74
2023/07/31 01:01:06;;;;;;;4.35;1.73;;;;;;;13.57;100.00;95985.22;1022486;29;20031;-75
2023/07/31 01:01:37;;;;;;;6.10;1.80;;;;;;;13.53;100.00;95985.00;1014777;29;20047;-74
2023/07/31 01:02:07;;;;;;;4.72;2.25;;;;;;;13.61;100.00;95994.94;1022419;28;20039;-74
2023/07/31 01:02:38;;;;;;;3.95;1.70;;;;;;;13.61;100.00;95986.25;1018624;29;20039;-74
2023/07/31 01:03:08;;;;;;;5.55;2.10;;;;;;;13.55;100.00;95979.47;1014499;29;20028;-74
2023/07/31 01:03:39;;;;;;;8.10;1.88;;;;;;;13.61;100.00;95986.25;1018298;29;20386;-75
2023/07/31 01:04:09;;;;;;;3.03;1.90;;;;;;;13.67;100.00;95985.94;1018541;29;20016;-75
2023/07/31 01:04:42;;;;;;;5.70;1.85;;;;;;;13.63;100.00;95990.19;1014570;29;20494;-75
2023/07/31 01:05:12;;;;;;;2.67;1.50;;;;;;;13.67;100.00;95996.50;1018688;29;20020;-76
2023/07/31 01:05:49;;;;;;;4.50;1.92;;;;;;;13.69;100.00;95990.94;1019117;28;20023;-75
2023/07/31 01:06:22;;;;;;;3.83;1.70;;;;;;;13.68;100.00;95987.53;1018744;29;20035;-74
2023/07/31 01:07:05;;;;;;;2.08;1.83;;;;;;;13.61;100.00;95975.69;1017130;29;20547;-76
2023/07/31 01:07:52;;;;;;;3.63;2.10;;;;;;;13.65;100.00;95988.09;1014677;29;20019;-74
2023/07/31 01:08:41;;;;;;;6.10;2.13;;;;;;;13.65;100.00;95987.28;1018550;29;20046;-74
2023/07/31 01:09:30;;;;;;;3.03;2.08;;;;;;;13.66;100.00;95989.66;1024154;28;20430;-75
2023/07/31 01:10:11;;;;;;;2.95;1.88;;;;;;;13.64;100.00;95991.75;1031263;28;20049;-74
2023/07/31 01:10:47;;;;;;;3.72;1.73;;;;;;;13.63;100.00;95986.78;1025801;28;20448;-74
2023/07/31 01:11:22;;;;;;;3.95;1.98;;;;;;;13.62;100.00;95987.84;1018418;29;20051;-75
2023/07/31 01:11:53;;;;;;;6.30;2.22;;;;;;;13.61;100.00;95988.88;1014568;29;20091;-72
2023/07/31 01:12:24;;;;;;;4.47;1.77;;;;;;;13.56;100.00;95983.66;1014517;29;20028;-74
2023/07/31 01:12:55;;;;;;;7.97;1.92;;;;;;;13.60;100.00;95984.69;1014563;29;20031;-74
2023/07/31 01:13:25;;;;;;;4.78;1.85;;;;;;;13.61;100.00;95986.25;1022466;29;20843;-76
2023/07/31 01:13:56;;;;;;;2.88;1.90;;;;;;;13.62;100.00;95982.56;1014520;29;20119;-75
2023/07/31 01:14:26;;;;;;;3.85;2.10;;;;;;;13.58;100.00;95981.53;1018385;29;20059;-74
2023/07/31 01:15:02;;;;;;;2.20;1.55;;;;;;;13.62;100.00;95985.22;1022628;29;20401;-74
2023/07/31 01:15:33;;;;;;;3.85;2.00;;;;;;;13.63;100.00;95984.13;1022680;29;20037;-74
2023/07/31 01:16:03;;;;;;;6.07;2.45;;;;;;;13.58;100.00;95978.88;1014158;29;20387;-75
2023/07/31 01:16:34;;;;;;;6.97;2.15;;;;;;;13.59;100.00;95983.13;1014705;29;20024;-74
2023/07/31 01:17:04;;;;;;;3.80;2.25;;;;;;;13.59;100.00;95976.00;1014436;29;20024;-75
2023/07/31 01:17:35;;;;;;;4.78;2.00;;;;;;;13.57;100.00;95980.75;1010924;29;20029;-74
2023/07/31 01:18:05;;;;;;;3.35;2.05;;;;;;;13.58;100.00;95976.25;1018367;29;20026;-73
2023/07/31 01:18:36;;;;;;;4.38;2.13;;;;;;;13.59;100.00;95980.47;1018700;29;20019;-75
2023/07/31 01:19:06;;;;;;;3.38;1.92;;;;;;;13.52;100.00;95972.09;1018473;28;20175;-75
2023/07/31 01:19:37;;;;;;;3.13;1.80;;;;;;;13.53;100.00;95974.44;1020980;29;20019;-74
2023/07/31 01:20:23;;;;;;;4.32;1.75;;;;;;;13.57;100.00;95975.47;1018360;29;20064;-74
2023/07/31 01:21:35;;;;;;;5.72;2.42;;;;;;;13.56;100.00;95976.53;1014589;29;20067;-74
2023/07/31 01:22:24;;;;;;;4.85;2.00;;;;;;;13.55;100.00;95972.34;1021762;29;20473;-74
2023/07/31 01:23:06;;;;;;;3.78;1.83;;;;;;;13.55;100.00;95977.59;1030505;28;20381;-74
2023/07/31 01:24:07;;;;;;;3.10;1.73;;;;;;;13.57;100.00;95970.19;1030519;28;20052;-75
2023/07/31 01:24:56;;;;;;;3.15;2.10;;;;;;;13.58;100.00;95974.44;1022322;29;20834;-74
2023/07/31 01:25:47;;;;;;;4.70;2.10;;;;;;;13.58;100.00;95970.97;1020966;29;20027;-73
2023/07/31 01:26:19;;;;;;;2.53;1.95;;;;;;;13.54;100.00;95973.38;1019354;29;20064;-75
2023/07/31 01:26:56;;;;;;;4.25;2.08;;;;;;;13.59;100.00;95968.09;1014668;29;20087;-74
2023/07/31 01:27:30;;;;;;;5.55;2.17;;;;;;;13.53;100.00;95963.13;1022424;28;20112;-76
2023/07/31 01:28:05;;;;;;;4.15;2.42;;;;;;;13.58;100.00;95970.97;1020085;29;20148;-74
2023/07/31 01:28:56;;;;;;;5.63;1.88;;;;;;;13.57;100.00;95972.84;1018386;29;20118;-73
2023/07/31 01:29:37;;;;;;;6.47;2.10;;;;;;;13.55;100.00;95966.28;1018521;29;20477;-75
2023/07/31 01:30:14;;;;;;;7.38;2.13;;;;;;;13.57;100.00;95969.41;1014820;29;20024;-74
2023/07/31 01:30:46;;;;;;;44.33;2.90;;;;;;;13.45;100.00;95959.22;1013737;29;20429;-74
2023/07/31 01:31:20;;;;;;;4.38;1.50;;;;;;;13.57;100.00;95969.41;1011122;29;20208;-73
2023/07/31 01:31:50;;;;;;;4.13;1.83;;;;;;;13.33;100.00;95927.16;1014567;29;20035;-74
2023/07/31 01:32:20;;;;;;;9.02;1.88;;;;;;;13.55;100.00;95969.69;1014556;29;20020;-74
2023/07/31 01:32:51;;;;;;;11.02;2.15;;;;;;;13.56;100.00;95968.63;1014488;29;20471;-75
2023/07/31 01:33:21;;;;;;;8.75;2.00;;;;;;;13.53;100.00;95963.91;1014303;29;20461;-74
2023/07/31 01:33:54;;;;;;;2.58;1.90;;;;;;;13.49;100.00;95951.56;1014668;29;20021;-74
2023/07/31 01:34:24;;;;;;;4.30;1.92;;;;;;;13.51;100.00;95962.59;1018482;29;20020;-73
2023/07/31 01:34:55;;;;;;;5.43;2.10;;;;;;;13.53;100.00;95957.84;1014444;29;20071;-74
2023/07/31 01:35:25;;;;;;;5.47;2.13;;;;;;;13.53;100.00;95953.34;1014684;29;20064;-76
2023/07/31 01:35:56;;;;;;;5.45;2.33;;;;;;;13.58;100.00;95965.69;1018620;29;20035;-76
2023/07/31 01:36:26;;;;;;;8.95;2.22;;;;;;;13.56;100.00;95960.72;1018334;29;20026;-74
2023/07/31 01:36:58;;;;;;;3.75;2.10;;;;;;;13.55;100.00;95963.66;1022363;29;20142;-74
2023/07/31 01:37:29;;;;;;;3.55;1.85;;;;;;;13.56;100.00;95963.34;1022422;28;20705;-74
2023/07/31 01:38:00;;;;;;;4.55;1.80;;;;;;;13.51;100.00;95957.31;1018548;29;20398;-75
2023/07/31 01:38:30;;;;;;;3.78;2.00;;;;;;;13.55;100.00;95966.28;1018473;29;20047;-74
2023/07/31 01:39:01;;;;;;;2.97;1.95;;;;;;;13.56;100.00;95967.84;1018420;29;20028;-73
2023/07/31 01:39:32;;;;;;;10.07;2.10;;;;;;;13.56;100.00;95971.28;1018697;29;20032;-74
2023/07/31 01:40:03;;;;;;;3.78;1.90;;;;;;;13.57;100.00;95972.06;1022441;28;20042;-74
2023/07/31 01:40:34;;;;;;;5.43;2.10;;;;;;;13.56;100.00;95973.13;1017865;28;20011;-76
2023/07/31 01:41:04;;;;;;;4.90;2.42;;;;;;;13.48;100.00;95961.31;1014476;29;20560;-75
2023/07/31 01:41:35;;;;;;;4.70;2.25;;;;;;;13.57;100.00;95970.19;1017058;29;20054;-74
2023/07/31 01:42:05;;;;;;;5.63;2.22;;;;;;;13.53;100.00;95961.28;1018528;29;20030;-73
2023/07/31 01:42:36;;;;;;;3.13;2.25;;;;;;;13.50;100.00;95958.41;1018585;29;20015;-77
2023/07/31 01:43:06;;;;;;;3.35;2.17;;;;;;;13.58;100.00;95973.63;1022382;28;20465;-73
2023/07/31 01:43:36;;;;;;;4.63;2.10;;;;;;;13.54;100.00;95970.75;1014407;29;20443;-74
2023/07/31 01:44:07;;;;;;;6.80;2.13;;;;;;;13.53;100.00;95969.19;1014540;29;20020;-73
2023/07/31 01:44:37;;;;;;;3.90;2.17;;;;;;;13.51;100.00;95960.75;1014621;29;20020;-75
2023/07/31 01:45:08;;;;;;;5.13;2.40;;;;;;;13.60;100.00;95974.91;1024719;28;20031;-74
2023/07/31 01:45:39;;;;;;;5.97;2.10;;;;;;;13.61;100.00;95965.16;1018390;29;20030;-74
2023/07/31 01:46:09;;;;;;;6.45;1.98;;;;;;;13.60;100.00;95974.13;1018446;29;20023;-74
2023/07/31 01:46:40;;;;;;;7.65;1.90;;;;;;;13.61;100.00;95971.22;1018350;29;20020;-75
2023/07/31 01:47:10;;;;;;;3.83;2.05;;;;;;;13.56;100.00;95962.56;1014615;29;20709;-74
2023/07/31 01:47:41;;;;;;;3.63;2.05;;;;;;;13.63;100.00;95968.31;1014571;29;20028;-76
2023/07/31 01:48:11;;;;;;;3.00;1.80;;;;;;;13.65;100.00;95971.47;1018489;29;20023;-73
2023/07/31 01:48:42;;;;;;;4.72;2.10;;;;;;;13.64;100.00;95970.66;1022207;28;20548;-74
2023/07/31 01:49:12;;;;;;;4.85;1.90;;;;;;;13.60;100.00;95963.59;1026580;28;20019;-74
2023/07/31 01:49:43;;;;;;;4.63;2.22;;;;;;;13.43;100.00;95938.41;1030291;28;20052;-73
2023/07/31 01:50:13;;;;;;;4.75;1.85;;;;;;;13.68;100.00;95973.53;1022194;29;20026;-75
2023/07/31 01:50:44;;;;;;;4.50;2.28;;;;;;;13.67;100.00;95969.34;1021741;29;20128;-75
2023/07/31 01:51:14;;;;;;;5.35;2.25;;;;;;;13.70;100.00;95968.78;1010760;29;20039;-76
2023/07/31 01:51:45;;;;;;;6.25;2.95;;;;;;;13.68;100.00;95969.06;1011597;29;20498;-74
2023/07/31 01:52:15;;;;;;;5.10;2.40;;;;;;;13.59;100.00;95951.47;1022558;29;20053;-74
2023/07/31 01:52:45;;;;;;;2.53;2.00;;;;;;;13.72;100.00;95971.94;1018672;28;20084;-74
2023/07/31 01:53:16;;;;;;;2.92;2.13;;;;;;;13.70;100.00;95968.78;1022470;29;20042;-75
2023/07/31 01:53:46;;;;;;;3.42;2.10;;;;;;;13.71;100.00;95970.34;1018232;28;20387;-74
2023/07/31 01:54:17;;;;;;;4.13;2.40;;;;;;;13.71;100.00;95970.34;1014703;29;20043;-73
2023/07/31 01:54:47;;;;;;;6.07;2.40;;;;;;;13.71;100.00;95970.34;1018668;28;20040;-74
2023/07/31 01:55:18;;;;;;;4.75;2.20;;;;;;;13.71;100.00;95964.28;1022506;28;20086;-74
2023/07/31 01:55:48;;;;;;;4.50;2.20;;;;;;;13.72;100.00;95968.53;1022282;28;20031;-73
2023/07/31 01:56:19;;;;;;;6.63;2.63;;;;;;;13.72;100.00;95971.94;1018508;29;20035;-74
2023/07/31 01:56:49;;;;;;;8.75;2.47;;;;;;;13.71;100.00;95970.34;1018348;29;20040;-74
2023/07/31 01:57:20;;;;;;;6.55;2.30;;;;;;;13.71;100.00;95970.34;1020931;28;20441;-75
2023/07/31 01:57:50;;;;;;;4.93;2.25;;;;;;;13.71;100.00;95977.47;1026267;28;20027;-76
2023/07/31 01:58:20;;;;;;;5.43;2.10;;;;;;;13.71;100.00;95972.19;1034444;28;20479;-75
2023/07/31 01:58:51;;;;;;;5.25;2.08;;;;;;;13.71;100.00;95959.78;1030245;28;20030;-75
2023/07/31 01:59:21;;;;;;;3.50;2.15;;;;;;;13.72;100.00;95969.31;1030432;28;20041;-74
2023/07/31 01:59:53;;;;;;;4.18;2.58;;;;;;;13.71;100.00;95972.19;1022347;29;20036;-74
2023/07/31 02:00:23;;;;;;;5.43;2.42;;;;;;;13.62;100.00;95957.00;1013923;29;20047;-76
2023/07/31 02:00:54;;;;;;;4.07;2.40;;;;;;;13.70;100.00;95960.88;1014511;29;20032;-74
2023/07/31 02:01:24;;;;;;;4.97;2.50;;;;;;;13.64;100.00;95948.78;1014801;29;20028;-74
2023/07/31 02:01:54;;;;;;;2.58;2.10;;;;;;;13.71;100.00;95966.94;1014400;29;20570;-73
2023/07/31 02:02:25;;;;;;;3.45;2.30;;;;;;;13.64;100.00;95959.34;1018480;29;20031;-75
2023/07/31 02:02:55;;;;;;;5.18;2.25;;;;;;;13.71;100.00;95970.34;1010508;29;20037;-76
2023/07/31 02:03:26;;;;;;;3.40;2.05;;;;;;;13.62;100.00;95956.22;1010495;29;20032;-75
2023/07/31 02:03:57;;;;;;;5.93;2.10;;;;;;;13.70;100.00;95968.78;1014932;29;20036;-74
2023/07/31 02:04:28;;;;;;;3.40;2.30;;;;;;;13.71;100.00;95975.63;1014864;29;20134;-74
2023/07/31 02:04:58;;;;;;;4.15;2.30;;;;;;;13.69;100.00;95964.59;1018391;29;20518;-75
2023/07/31 02:05:28;;;;;;;5.22;2.63;;;;;;;13.68;100.00;95971.72;1016533;29;20589;-74
2023/07/31 02:05:59;;;;;;;5.43;2.15;;;;;;;13.62;100.00;95953.56;1022492;28;20214;-73
2023/07/31 02:06:29;;;;;;;5.28;2.60;;;;;;;13.67;100.00;95966.69;1022545;28;20035;-74
2023/07/31 02:07:00;;;;;;;3.60;1.95;;;;;;;13.67;100.00;95964.06;1022435;28;20034;-75
2023/07/31 02:07:30;;;;;;;3.45;2.28;;;;;;;13.60;100.00;95956.47;1022545;29;20031;-74
2023/07/31 02:08:01;;;;;;;5.60;2.10;;;;;;;13.57;100.00;95948.31;1018478;29;20090;-75
2023/07/31 02:08:31;;;;;;;4.32;2.50;;;;;;;13.63;100.00;95968.31;1018548;29;20039;-73
2023/07/31 02:09:02;;;;;;;4.97;2.60;;;;;;;13.64;100.00;95956.69;1022371;28;20374;-74
2023/07/31 02:09:33;;;;;;;5.05;2.35;;;;;;;13.63;100.00;95963.03;1026294;28;20109;-75
2023/07/31 02:10:03;;;;;;;6.93;3.10;;;;;;;13.60;100.00;95958.31;1030445;28;20026;-74
2023/07/31 02:10:34;;;;;;;4.18;2.45;;;;;;;13.61;100.00;95959.88;1029754;28;20019;-75
2023/07/31 02:11:04;;;;;;;2.63;2.22;;;;;;;13.61;100.00;95967.78;1027819;28;20030;-74
2023/07/31 02:11:35;;;;;;;3.58;2.67;;;;;;;13.53;100.00;95945.44;1022494;28;20031;-73
2023/07/31 02:12:05;;;;;;;5.60;2.28;;;;;;;13.62;100.00;95962.25;1022527;28;20027;-73
2023/07/31 02:12:36;;;;;;;6.32;2.30;;;;;;;13.60;100.00;95964.38;1026300;28;20029;-73
2023/07/31 02:13:06;;;;;;;6.38;2.45;;;;;;;13.61;100.00;95959.88;1022639;28;20523;-76
2023/07/31 02:13:37;;;;;;;2.92;2.42;;;;;;;13.56;100.00;95957.31;1026382;28;20026;-74
2023/07/31 02:14:08;;;;;;;5.18;2.50;;;;;;;13.42;100.00;95936.06;1022314;29;20031;-75
2023/07/31 02:14:38;;;;;;;7.05;2.33;;;;;;;13.59;100.00;95962.03;1022233;29;20546;-73
2023/07/31 02:15:09;;;;;;;5.18;2.38;;;;;;;13.56;100.00;95950.19;1018541;29;20024;-74
2023/07/31 02:15:39;;;;;;;4.97;2.50;;;;;;;13.51;100.00;95944.16;1018732;29;20023;-75
2023/07/31 02:16:10;;;;;;;5.55;2.28;;;;;;;13.57;100.00;95948.31;1018414;29;20028;-76
2023/07/31 02:16:42;;;;;;;3.90;2.28;;;;;;;13.54;100.00;95951.50;1018470;29;20477;-74
2023/07/31 02:17:12;;;;;;;12.23;2.55;;;;;;;13.52;100.00;95956.28;1022665;28;20047;-75
2023/07/31 02:17:43;;;;;;;9.10;3.53;;;;;;;13.46;100.00;95938.94;1023516;28;20019;-74
2023/07/31 02:18:13;;;;;;;8.20;2.90;;;;;;;13.48;100.00;95949.97;1030433;28;20105;-73
2023/07/31 02:18:44;;;;;;;4.50;2.35;;;;;;;13.43;100.00;95941.03;1026108;28;20031;-75
2023/07/31 02:19:14;;;;;;;3.05;1.98;;;;;;;13.41;100.00;95940.53;1026469;28;20030;-74
2023/07/31 02:19:45;;;;;;;4.60;1.98;;;;;;;13.39;100.00;95939.25;1026189;28;20019;-75
2023/07/31 02:20:15;;;;;;;4.38;2.42;;;;;;;13.38;100.00;95941.09;1018373;29;20024;-74
2023/07/31 02:20:50;;;;;;;5.03;3.10;;;;;;;13.33;100.00;95935.06;1017510;29;20572;-73
2023/07/31 02:21:21;;;;;;;3.78;2.45;;;;;;;13.28;100.00;95928.00;1022751;28;20030;-75
2023/07/31 02:21:51;;;;;;;6.55;2.50;;;;;;;13.29;100.00;95937.47;1019674;29;20024;-76
2023/07/31 02:22:22;;;;;;;7.20;2.70;;;;;;;13.27;100.00;95931.66;1014895;29;20024;-75
2023/07/31 02:22:52;;;;;;;3.25;2.40;;;;;;;13.33;100.00;95943.75;1014683;29;20032;-73
2023/07/31 02:23:23;;;;;;;4.22;2.30;;;;;;;13.36;100.00;95947.69;1014261;29;20027;-76
2023/07/31 02:23:53;;;;;;;5.57;2.58;;;;;;;13.37;100.00;95941.34;1023321;28;20028;-74
2023/07/31 02:24:24;;;;;;;5.70;2.60;;;;;;;13.25;100.00;95933.03;1030624;28;20023;-76
2023/07/31 02:24:54;;;;;;;5.28;2.58;;;;;;;13.32;100.00;95941.41;1022245;29;20552;-74
2023/07/31 02:25:25;;;;;;;2.85;2.20;;;;;;;13.21;100.00;95928.28;1022411;29;20020;-76
2023/07/31 02:25:55;;;;;;;3.85;2.30;;;;;;;13.27;100.00;95931.66;1014715;29;20028;-74
2023/07/31 02:26:26;;;;;;;4.95;2.53;;;;;;;13.27;100.00;95938.78;1014651;29;20517;-73
2023/07/31 02:26:56;;;;;;;4.78;2.55;;;;;;;13.19;100.00;95932.22;1022648;29;20039;-74